sensor_id;sensor_type;location;lat;lon;timestamp;temperature;humidity
11142;DHT22;5625;50.122;19.864;2024-03-22T00:01:12;9.60;1.00
11142;DHT22;5625;50.122;19.864;2024-03-22T00:03:38;9.50;1.00
11142;DHT22;5625;50.122;19.864;2024-03-22T00:06:05;9.50;3.80
11142;DHT22;5625;50.122;19.864;2024-03-22T00:08:33;9.50;1.00
11142;DHT22;5625;50.122;19.864;2024-03-22T00:11:00;9.50;1.00
11142;DHT22;5625;50.122;19.864;2024-03-22T00:13:26;9.50;1.00
11142;DHT22;5625;50.122;19.864;2024-03-22T00:15:53;9.50;1.00
11142;DHT22;5625;50.122;19.864;2024-03-22T00:18:19;9.50;1.00
11142;DHT22;5625;50.122;19.864;2024-03-22T00:20:47;9.50;1.00
11142;DHT22;5625;50.122;19.864;2024-03-22T00:23:13;9.40;1.00
11142;DHT22;5625;50.122;19.864;2024-03-22T00:25:43;9.40;1.00
11142;DHT22;5625;50.122;19.864;2024-03-22T00:28:09;9.40;51.00
11142;DHT22;5625;50.122;19.864;2024-03-22T00:30:36;9.40;56.20
11142;DHT22;5625;50.122;19.864;2024-03-22T00:33:02;9.40;19.30
11142;DHT22;5625;50.122;19.864;2024-03-22T00:35:30;9.30;1.00
11142;DHT22;5625;50.122;19.864;2024-03-22T00:37:57;9.30;1.00
11142;DHT22;5625;50.122;19.864;2024-03-22T00:40:23;9.30;99.90
11142;DHT22;5625;50.122;19.864;2024-03-22T00:42:54;9.30;99.90
11142;DHT22;5625;50.122;19.864;2024-03-22T00:45:21;9.30;99.90
11142;DHT22;5625;50.122;19.864;2024-03-22T00:47:48;9.30;99.90
11142;DHT22;5625;50.122;19.864;2024-03-22T00:50:15;9.20;99.90
11142;DHT22;5625;50.122;19.864;2024-03-22T00:52:42;9.20;99.90
11142;DHT22;5625;50.122;19.864;2024-03-22T00:55:08;9.20;99.90
11142;DHT22;5625;50.122;19.864;2024-03-22T00:57:35;9.20;99.90
11142;DHT22;5625;50.122;19.864;2024-03-22T01:00:04;9.20;99.90
11142;DHT22;5625;50.122;19.864;2024-03-22T01:02:31;9.20;99.90
11142;DHT22;5625;50.122;19.864;2024-03-22T01:04:57;9.20;99.90
11142;DHT22;5625;50.122;19.864;2024-03-22T01:07:25;9.20;99.90
11142;DHT22;5625;50.122;19.864;2024-03-22T01:09:51;9.20;99.90
11142;DHT22;5625;50.122;19.864;2024-03-22T01:12:18;9.20;99.90
11142;DHT22;5625;50.122;19.864;2024-03-22T01:14:44;9.20;99.90
11142;DHT22;5625;50.122;19.864;2024-03-22T01:17:13;9.20;99.90
11142;DHT22;5625;50.122;19.864;2024-03-22T01:19:39;9.10;99.90
11142;DHT22;5625;50.122;19.864;2024-03-22T01:22:06;9.10;99.90
11142;DHT22;5625;50.122;19.864;2024-03-22T01:24:33;9.10;99.90
11142;DHT22;5625;50.122;19.864;2024-03-22T01:27:00;9.10;99.90
11142;DHT22;5625;50.122;19.864;2024-03-22T01:29:26;9.10;76.70
11142;DHT22;5625;50.122;19.864;2024-03-22T01:31:56;9.10;29.80
11142;DHT22;5625;50.122;19.864;2024-03-22T01:34:24;9.10;99.90
11142;DHT22;5625;50.122;19.864;2024-03-22T01:36:51;9.10;99.90
11142;DHT22;5625;50.122;19.864;2024-03-22T01:41:47;9.00;99.90
11142;DHT22;5625;50.122;19.864;2024-03-22T01:44:13;9.10;99.90
11142;DHT22;5625;50.122;19.864;2024-03-22T01:46:40;9.00;1.00
11142;DHT22;5625;50.122;19.864;2024-03-22T01:49:07;9.00;1.00
11142;DHT22;5625;50.122;19.864;2024-03-22T01:51:36;9.00;65.50
11142;DHT22;5625;50.122;19.864;2024-03-22T01:54:03;9.00;99.90
11142;DHT22;5625;50.122;19.864;2024-03-22T01:56:31;9.00;99.90
11142;DHT22;5625;50.122;19.864;2024-03-22T01:58:58;9.00;1.00
11142;DHT22;5625;50.122;19.864;2024-03-22T02:01:25;9.00;91.30
11142;DHT22;5625;50.122;19.864;2024-03-22T02:03:52;9.00;99.90
11142;DHT22;5625;50.122;19.864;2024-03-22T02:06:19;9.00;99.90
11142;DHT22;5625;50.122;19.864;2024-03-22T02:08:46;9.00;99.90
11142;DHT22;5625;50.122;19.864;2024-03-22T02:11:13;9.00;99.90
11142;DHT22;5625;50.122;19.864;2024-03-22T02:13:40;9.00;99.90
11142;DHT22;5625;50.122;19.864;2024-03-22T02:16:09;9.00;99.90
11142;DHT22;5625;50.122;19.864;2024-03-22T02:18:35;8.90;99.90
11142;DHT22;5625;50.122;19.864;2024-03-22T02:21:02;8.90;1.00
11142;DHT22;5625;50.122;19.864;2024-03-22T02:23:32;8.90;1.00
11142;DHT22;5625;50.122;19.864;2024-03-22T02:26:00;8.90;1.00
11142;DHT22;5625;50.122;19.864;2024-03-22T02:28:26;8.90;60.80
11142;DHT22;5625;50.122;19.864;2024-03-22T02:30:53;8.90;99.90
11142;DHT22;5625;50.122;19.864;2024-03-22T02:33:20;8.90;99.90
11142;DHT22;5625;50.122;19.864;2024-03-22T02:35:47;9.00;99.90
11142;DHT22;5625;50.122;19.864;2024-03-22T02:38:14;8.90;99.90
11142;DHT22;5625;50.122;19.864;2024-03-22T02:40:43;8.90;99.90
11142;DHT22;5625;50.122;19.864;2024-03-22T02:43:09;8.90;99.90
11142;DHT22;5625;50.122;19.864;2024-03-22T02:45:36;9.00;99.90
11142;DHT22;5625;50.122;19.864;2024-03-22T02:48:03;9.00;99.90
11142;DHT22;5625;50.122;19.864;2024-03-22T02:50:33;9.00;99.90
11142;DHT22;5625;50.122;19.864;2024-03-22T02:52:59;9.00;99.90
11142;DHT22;5625;50.122;19.864;2024-03-22T02:55:26;9.00;99.90
11142;DHT22;5625;50.122;19.864;2024-03-22T02:57:55;9.00;99.90
11142;DHT22;5625;50.122;19.864;2024-03-22T03:00:23;9.00;99.90
11142;DHT22;5625;50.122;19.864;2024-03-22T03:02:49;9.00;99.90
11142;DHT22;5625;50.122;19.864;2024-03-22T03:05:16;9.00;1.00
11142;DHT22;5625;50.122;19.864;2024-03-22T03:07:42;9.00;1.00
11142;DHT22;5625;50.122;19.864;2024-03-22T03:10:10;9.00;1.00
11142;DHT22;5625;50.122;19.864;2024-03-22T03:12:36;9.00;1.00
11142;DHT22;5625;50.122;19.864;2024-03-22T03:15:05;9.00;1.00
11142;DHT22;5625;50.122;19.864;2024-03-22T03:17:32;9.00;1.00
11142;DHT22;5625;50.122;19.864;2024-03-22T03:19:59;9.00;1.00
11142;DHT22;5625;50.122;19.864;2024-03-22T03:22:25;9.00;1.00
11142;DHT22;5625;50.122;19.864;2024-03-22T03:24:52;9.00;1.00
11142;DHT22;5625;50.122;19.864;2024-03-22T03:27:18;9.00;1.00
11142;DHT22;5625;50.122;19.864;2024-03-22T03:29:46;9.00;1.00
11142;DHT22;5625;50.122;19.864;2024-03-22T03:32:13;9.00;1.00
11142;DHT22;5625;50.122;19.864;2024-03-22T03:34:41;9.00;1.00
11142;DHT22;5625;50.122;19.864;2024-03-22T03:37:07;9.00;1.00
11142;DHT22;5625;50.122;19.864;2024-03-22T03:39:34;9.00;1.00
11142;DHT22;5625;50.122;19.864;2024-03-22T03:42:00;9.00;1.00
11142;DHT22;5625;50.122;19.864;2024-03-22T03:44:27;9.00;1.00
11142;DHT22;5625;50.122;19.864;2024-03-22T03:46:54;9.00;1.00
11142;DHT22;5625;50.122;19.864;2024-03-22T03:49:23;9.00;1.00
11142;DHT22;5625;50.122;19.864;2024-03-22T03:51:49;9.00;1.00
11142;DHT22;5625;50.122;19.864;2024-03-22T03:54:16;9.00;1.00
11142;DHT22;5625;50.122;19.864;2024-03-22T03:56:42;9.00;1.00
11142;DHT22;5625;50.122;19.864;2024-03-22T03:59:10;9.00;1.00
11142;DHT22;5625;50.122;19.864;2024-03-22T04:01:36;9.00;1.00
11142;DHT22;5625;50.122;19.864;2024-03-22T04:04:03;9.00;1.00
11142;DHT22;5625;50.122;19.864;2024-03-22T04:06:31;8.90;1.00
11142;DHT22;5625;50.122;19.864;2024-03-22T04:08:58;8.90;1.00
11142;DHT22;5625;50.122;19.864;2024-03-22T04:11:25;8.90;1.00
11142;DHT22;5625;50.122;19.864;2024-03-22T04:13:54;8.90;1.00
11142;DHT22;5625;50.122;19.864;2024-03-22T04:16:21;8.90;1.00
11142;DHT22;5625;50.122;19.864;2024-03-22T04:18:48;8.90;1.00
11142;DHT22;5625;50.122;19.864;2024-03-22T04:21:14;8.90;36.40
11142;DHT22;5625;50.122;19.864;2024-03-22T04:23:43;8.80;9.50
11142;DHT22;5625;50.122;19.864;2024-03-22T04:26:09;8.80;15.70
11142;DHT22;5625;50.122;19.864;2024-03-22T04:28:38;8.80;6.50
11142;DHT22;5625;50.122;19.864;2024-03-22T04:31:05;8.80;7.20
11142;DHT22;5625;50.122;19.864;2024-03-22T04:33:34;8.80;16.00
11142;DHT22;5625;50.122;19.864;2024-03-22T04:36:01;8.80;45.60
11142;DHT22;5625;50.122;19.864;2024-03-22T04:38:29;8.80;36.10
11142;DHT22;5625;50.122;19.864;2024-03-22T04:40:58;8.80;41.80
11142;DHT22;5625;50.122;19.864;2024-03-22T04:43:25;8.80;56.00
11142;DHT22;5625;50.122;19.864;2024-03-22T04:45:52;8.80;33.90
11142;DHT22;5625;50.122;19.864;2024-03-22T04:48:21;8.80;49.30
11142;DHT22;5625;50.122;19.864;2024-03-22T04:50:48;8.80;90.10
11142;DHT22;5625;50.122;19.864;2024-03-22T04:53:16;8.80;99.90
11142;DHT22;5625;50.122;19.864;2024-03-22T04:55:43;8.80;98.10
11142;DHT22;5625;50.122;19.864;2024-03-22T04:58:14;8.80;94.10
11142;DHT22;5625;50.122;19.864;2024-03-22T05:00:40;8.80;99.90
11142;DHT22;5625;50.122;19.864;2024-03-22T05:03:08;8.80;99.90
11142;DHT22;5625;50.122;19.864;2024-03-22T05:05:34;8.80;99.90
11142;DHT22;5625;50.122;19.864;2024-03-22T05:08:02;8.80;99.90
11142;DHT22;5625;50.122;19.864;2024-03-22T05:10:28;8.80;99.90
11142;DHT22;5625;50.122;19.864;2024-03-22T05:12:56;8.80;99.90
11142;DHT22;5625;50.122;19.864;2024-03-22T05:15:24;8.80;99.90
11142;DHT22;5625;50.122;19.864;2024-03-22T05:17:53;8.80;99.90
11142;DHT22;5625;50.122;19.864;2024-03-22T05:20:19;8.80;99.90
11142;DHT22;5625;50.122;19.864;2024-03-22T05:22:46;8.90;99.90
11142;DHT22;5625;50.122;19.864;2024-03-22T05:25:12;8.90;99.90
11142;DHT22;5625;50.122;19.864;2024-03-22T05:27:41;8.90;99.90
11142;DHT22;5625;50.122;19.864;2024-03-22T05:30:08;8.90;99.90
11142;DHT22;5625;50.122;19.864;2024-03-22T05:32:37;9.00;99.90
11142;DHT22;5625;50.122;19.864;2024-03-22T05:35:04;9.00;99.90
11142;DHT22;5625;50.122;19.864;2024-03-22T05:37:32;9.00;99.90
11142;DHT22;5625;50.122;19.864;2024-03-22T05:39:59;9.00;99.90
11142;DHT22;5625;50.122;19.864;2024-03-22T05:42:27;9.10;99.90
11142;DHT22;5625;50.122;19.864;2024-03-22T05:44:55;9.10;99.90
11142;DHT22;5625;50.122;19.864;2024-03-22T05:47:22;9.20;99.90
11142;DHT22;5625;50.122;19.864;2024-03-22T05:49:49;9.20;99.90
11142;DHT22;5625;50.122;19.864;2024-03-22T05:52:17;9.20;99.90
11142;DHT22;5625;50.122;19.864;2024-03-22T05:54:44;9.20;99.90
11142;DHT22;5625;50.122;19.864;2024-03-22T05:57:11;9.30;99.90
11142;DHT22;5625;50.122;19.864;2024-03-22T05:59:38;9.30;99.90
11142;DHT22;5625;50.122;19.864;2024-03-22T06:02:05;9.30;99.90
11142;DHT22;5625;50.122;19.864;2024-03-22T06:04:32;9.30;99.90
11142;DHT22;5625;50.122;19.864;2024-03-22T06:07:00;9.40;99.90
11142;DHT22;5625;50.122;19.864;2024-03-22T06:09:29;9.40;99.90
11142;DHT22;5625;50.122;19.864;2024-03-22T06:12:04;9.50;99.90
11142;DHT22;5625;50.122;19.864;2024-03-22T06:14:31;9.50;99.90
11142;DHT22;5625;50.122;19.864;2024-03-22T06:16:58;9.60;99.90
11142;DHT22;5625;50.122;19.864;2024-03-22T06:19:25;9.60;99.90
11142;DHT22;5625;50.122;19.864;2024-03-22T06:21:51;9.70;99.90
11142;DHT22;5625;50.122;19.864;2024-03-22T06:24:20;9.80;99.90
11142;DHT22;5625;50.122;19.864;2024-03-22T06:26:46;9.80;99.90
11142;DHT22;5625;50.122;19.864;2024-03-22T06:29:15;9.90;99.90
11142;DHT22;5625;50.122;19.864;2024-03-22T06:31:43;9.90;99.90
11142;DHT22;5625;50.122;19.864;2024-03-22T06:34:09;9.90;99.90
11142;DHT22;5625;50.122;19.864;2024-03-22T06:36:36;10.00;99.90
11142;DHT22;5625;50.122;19.864;2024-03-22T06:39:02;10.00;99.90
11142;DHT22;5625;50.122;19.864;2024-03-22T06:41:34;10.00;99.90
11142;DHT22;5625;50.122;19.864;2024-03-22T06:44:00;10.10;99.90
11142;DHT22;5625;50.122;19.864;2024-03-22T06:46:28;10.10;99.90
11142;DHT22;5625;50.122;19.864;2024-03-22T06:48:54;10.20;99.90
11142;DHT22;5625;50.122;19.864;2024-03-22T06:51:21;10.30;99.90
11142;DHT22;5625;50.122;19.864;2024-03-22T06:53:47;10.40;99.90
11142;DHT22;5625;50.122;19.864;2024-03-22T06:56:14;10.40;99.90
11142;DHT22;5625;50.122;19.864;2024-03-22T06:58:42;10.50;99.90
11142;DHT22;5625;50.122;19.864;2024-03-22T07:01:09;10.50;99.90
11142;DHT22;5625;50.122;19.864;2024-03-22T07:03:37;10.50;99.90
11142;DHT22;5625;50.122;19.864;2024-03-22T07:06:16;10.60;99.90
11142;DHT22;5625;50.122;19.864;2024-03-22T07:08:42;10.60;99.90
11142;DHT22;5625;50.122;19.864;2024-03-22T07:11:09;10.60;99.90
11142;DHT22;5625;50.122;19.864;2024-03-22T07:13:35;10.60;99.90
11142;DHT22;5625;50.122;19.864;2024-03-22T07:16:11;10.70;99.80
11142;DHT22;5625;50.122;19.864;2024-03-22T07:18:38;10.60;93.10
11142;DHT22;5625;50.122;19.864;2024-03-22T07:21:05;10.60;90.30
11142;DHT22;5625;50.122;19.864;2024-03-22T07:23:31;10.60;84.20
11142;DHT22;5625;50.122;19.864;2024-03-22T07:25:58;10.60;81.90
11142;DHT22;5625;50.122;19.864;2024-03-22T07:28:25;10.60;84.00
11142;DHT22;5625;50.122;19.864;2024-03-22T07:30:52;10.60;84.00
11142;DHT22;5625;50.122;19.864;2024-03-22T07:33:22;10.50;86.00
11142;DHT22;5625;50.122;19.864;2024-03-22T07:35:49;10.50;85.80
11142;DHT22;5625;50.122;19.864;2024-03-22T07:38:15;10.50;86.70
11142;DHT22;5625;50.122;19.864;2024-03-22T07:40:43;10.50;87.60
11142;DHT22;5625;50.122;19.864;2024-03-22T07:43:09;10.50;91.00
11142;DHT22;5625;50.122;19.864;2024-03-22T07:45:36;10.50;90.00
11142;DHT22;5625;50.122;19.864;2024-03-22T07:48:03;10.50;93.10
11142;DHT22;5625;50.122;19.864;2024-03-22T07:50:32;10.50;95.50
11142;DHT22;5625;50.122;19.864;2024-03-22T07:52:58;10.50;93.50
11142;DHT22;5625;50.122;19.864;2024-03-22T07:55:25;10.50;93.70
11142;DHT22;5625;50.122;19.864;2024-03-22T07:57:52;10.50;90.90
11142;DHT22;5625;50.122;19.864;2024-03-22T08:00:19;10.50;92.80
11142;DHT22;5625;50.122;19.864;2024-03-22T08:02:46;10.60;90.90
11142;DHT22;5625;50.122;19.864;2024-03-22T08:05:22;10.60;85.00
11142;DHT22;5625;50.122;19.864;2024-03-22T08:07:51;10.60;75.60
11142;DHT22;5625;50.122;19.864;2024-03-22T08:10:33;10.60;61.80
11142;DHT22;5625;50.122;19.864;2024-03-22T08:13:03;10.60;49.10
11142;DHT22;5625;50.122;19.864;2024-03-22T08:15:32;10.70;37.00
11142;DHT22;5625;50.122;19.864;2024-03-22T08:17:59;10.70;27.30
11142;DHT22;5625;50.122;19.864;2024-03-22T08:20:36;10.70;24.20
11142;DHT22;5625;50.122;19.864;2024-03-22T08:23:06;10.70;21.90
11142;DHT22;5625;50.122;19.864;2024-03-22T08:25:33;10.80;11.00
11142;DHT22;5625;50.122;19.864;2024-03-22T08:27:59;10.80;1.00
11142;DHT22;5625;50.122;19.864;2024-03-22T08:30:27;10.80;1.00
11142;DHT22;5625;50.122;19.864;2024-03-22T08:32:53;10.90;1.00
11142;DHT22;5625;50.122;19.864;2024-03-22T08:35:20;11.00;1.00
11142;DHT22;5625;50.122;19.864;2024-03-22T08:37:46;11.00;1.00
11142;DHT22;5625;50.122;19.864;2024-03-22T08:40:15;11.10;1.00
11142;DHT22;5625;50.122;19.864;2024-03-22T08:42:41;11.10;1.00
11142;DHT22;5625;50.122;19.864;2024-03-22T08:45:09;11.10;1.00
11142;DHT22;5625;50.122;19.864;2024-03-22T08:47:35;11.10;1.00
11142;DHT22;5625;50.122;19.864;2024-03-22T08:50:05;11.10;1.00
11142;DHT22;5625;50.122;19.864;2024-03-22T08:52:31;11.20;99.90
11142;DHT22;5625;50.122;19.864;2024-03-22T08:55:00;11.20;99.90
11142;DHT22;5625;50.122;19.864;2024-03-22T08:57:27;11.30;99.90
11142;DHT22;5625;50.122;19.864;2024-03-22T08:59:54;11.40;99.90
11142;DHT22;5625;50.122;19.864;2024-03-22T09:02:21;11.40;99.90
11142;DHT22;5625;50.122;19.864;2024-03-22T09:04:48;11.50;99.90
11142;DHT22;5625;50.122;19.864;2024-03-22T09:07:15;11.50;99.90
11142;DHT22;5625;50.122;19.864;2024-03-22T09:09:42;11.60;99.90
11142;DHT22;5625;50.122;19.864;2024-03-22T09:12:09;11.70;99.90
11142;DHT22;5625;50.122;19.864;2024-03-22T09:14:37;11.80;96.00
11142;DHT22;5625;50.122;19.864;2024-03-22T09:17:04;11.90;98.30
11142;DHT22;5625;50.122;19.864;2024-03-22T09:19:31;12.00;65.10
11142;DHT22;5625;50.122;19.864;2024-03-22T09:21:57;12.00;1.00
11142;DHT22;5625;50.122;19.864;2024-03-22T09:24:25;12.10;1.00
11142;DHT22;5625;50.122;19.864;2024-03-22T09:26:51;12.20;99.90
11142;DHT22;5625;50.122;19.864;2024-03-22T09:29:19;12.20;99.90
11142;DHT22;5625;50.122;19.864;2024-03-22T09:31:46;12.20;99.90
11142;DHT22;5625;50.122;19.864;2024-03-22T09:34:13;12.20;99.90
11142;DHT22;5625;50.122;19.864;2024-03-22T09:36:41;12.20;99.90
11142;DHT22;5625;50.122;19.864;2024-03-22T09:39:09;12.20;99.90
11142;DHT22;5625;50.122;19.864;2024-03-22T09:41:41;12.20;99.90
11142;DHT22;5625;50.122;19.864;2024-03-22T09:44:12;12.20;54.90
11142;DHT22;5625;50.122;19.864;2024-03-22T09:46:39;12.10;1.00
11142;DHT22;5625;50.122;19.864;2024-03-22T09:49:11;12.20;99.90
11142;DHT22;5625;50.122;19.864;2024-03-22T09:51:39;12.20;90.80
11142;DHT22;5625;50.122;19.864;2024-03-22T09:54:06;12.10;99.90
11142;DHT22;5625;50.122;19.864;2024-03-22T09:56:33;12.20;1.00
11142;DHT22;5625;50.122;19.864;2024-03-22T09:59:01;12.20;57.90
11142;DHT22;5625;50.122;19.864;2024-03-22T10:01:27;12.10;71.30
11142;DHT22;5625;50.122;19.864;2024-03-22T10:03:56;12.20;99.90
11142;DHT22;5625;50.122;19.864;2024-03-22T10:06:23;12.20;1.00
11142;DHT22;5625;50.122;19.864;2024-03-22T10:08:51;12.20;1.00
11142;DHT22;5625;50.122;19.864;2024-03-22T10:11:17;12.20;19.20
11142;DHT22;5625;50.122;19.864;2024-03-22T10:13:44;12.20;1.00
11142;DHT22;5625;50.122;19.864;2024-03-22T10:16:12;12.20;1.00
11142;DHT22;5625;50.122;19.864;2024-03-22T10:18:40;12.30;1.00
11142;DHT22;5625;50.122;19.864;2024-03-22T10:21:06;12.30;67.70
11142;DHT22;5625;50.122;19.864;2024-03-22T10:23:35;12.40;1.00
11142;DHT22;5625;50.122;19.864;2024-03-22T10:26:01;12.40;1.00
11142;DHT22;5625;50.122;19.864;2024-03-22T10:28:29;12.40;35.40
11142;DHT22;5625;50.122;19.864;2024-03-22T10:30:55;12.50;99.90
11142;DHT22;5625;50.122;19.864;2024-03-22T10:33:23;12.60;99.90
11142;DHT22;5625;50.122;19.864;2024-03-22T10:35:52;12.60;1.00
11142;DHT22;5625;50.122;19.864;2024-03-22T10:38:19;12.60;99.90
11142;DHT22;5625;50.122;19.864;2024-03-22T10:40:48;12.60;99.90
11142;DHT22;5625;50.122;19.864;2024-03-22T10:43:16;12.70;67.60
11142;DHT22;5625;50.122;19.864;2024-03-22T10:45:43;12.70;1.00
11142;DHT22;5625;50.122;19.864;2024-03-22T10:48:14;12.80;99.90
11142;DHT22;5625;50.122;19.864;2024-03-22T10:50:43;12.90;99.90
11142;DHT22;5625;50.122;19.864;2024-03-22T10:53:15;13.00;1.00
11142;DHT22;5625;50.122;19.864;2024-03-22T10:55:43;13.00;1.00
11142;DHT22;5625;50.122;19.864;2024-03-22T10:58:16;13.00;99.90
11142;DHT22;5625;50.122;19.864;2024-03-22T11:00:43;13.00;99.90
11142;DHT22;5625;50.122;19.864;2024-03-22T11:03:10;13.10;1.00
11142;DHT22;5625;50.122;19.864;2024-03-22T11:05:45;13.20;77.70
11142;DHT22;5625;50.122;19.864;2024-03-22T11:08:11;13.20;99.90
11142;DHT22;5625;50.122;19.864;2024-03-22T11:10:39;13.20;1.00
11142;DHT22;5625;50.122;19.864;2024-03-22T11:13:06;13.20;99.90
11142;DHT22;5625;50.122;19.864;2024-03-22T11:15:35;13.30;99.90
11142;DHT22;5625;50.122;19.864;2024-03-22T11:18:02;13.40;99.90
11142;DHT22;5625;50.122;19.864;2024-03-22T11:20:29;13.60;99.90
11142;DHT22;5625;50.122;19.864;2024-03-22T11:22:56;13.70;99.90
11142;DHT22;5625;50.122;19.864;2024-03-22T11:25:24;13.70;99.90
11142;DHT22;5625;50.122;19.864;2024-03-22T11:27:50;13.80;99.90
11142;DHT22;5625;50.122;19.864;2024-03-22T11:30:17;13.80;99.90
11142;DHT22;5625;50.122;19.864;2024-03-22T11:32:46;13.80;99.90
11142;DHT22;5625;50.122;19.864;2024-03-22T11:35:13;13.80;94.30
11142;DHT22;5625;50.122;19.864;2024-03-22T11:37:40;13.80;92.10
11142;DHT22;5625;50.122;19.864;2024-03-22T11:40:09;13.90;99.90
11142;DHT22;5625;50.122;19.864;2024-03-22T11:42:36;14.00;93.30
11142;DHT22;5625;50.122;19.864;2024-03-22T11:45:05;14.10;78.60
11142;DHT22;5625;50.122;19.864;2024-03-22T11:47:32;14.10;53.60
11142;DHT22;5625;50.122;19.864;2024-03-22T11:50:02;14.30;20.70
11142;DHT22;5625;50.122;19.864;2024-03-22T11:52:28;14.40;1.00
11142;DHT22;5625;50.122;19.864;2024-03-22T11:54:55;14.50;1.00
11142;DHT22;5625;50.122;19.864;2024-03-22T11:57:22;14.70;99.90
11142;DHT22;5625;50.122;19.864;2024-03-22T11:59:50;14.80;99.90
11142;DHT22;5625;50.122;19.864;2024-03-22T12:02:17;15.00;99.90
11142;DHT22;5625;50.122;19.864;2024-03-22T12:04:47;15.20;99.90
11142;DHT22;5625;50.122;19.864;2024-03-22T12:07:17;15.40;99.90
11142;DHT22;5625;50.122;19.864;2024-03-22T12:09:43;15.50;45.90
11142;DHT22;5625;50.122;19.864;2024-03-22T12:12:11;15.60;45.00
11142;DHT22;5625;50.122;19.864;2024-03-22T12:14:38;15.70;1.00
11142;DHT22;5625;50.122;19.864;2024-03-22T12:17:05;15.70;1.00
11142;DHT22;5625;50.122;19.864;2024-03-22T12:19:32;15.60;1.00
11142;DHT22;5625;50.122;19.864;2024-03-22T12:21:59;15.50;1.00
11142;DHT22;5625;50.122;19.864;2024-03-22T12:24:27;15.40;1.00
11142;DHT22;5625;50.122;19.864;2024-03-22T12:26:54;15.30;1.00
11142;DHT22;5625;50.122;19.864;2024-03-22T12:29:20;15.20;1.00
11142;DHT22;5625;50.122;19.864;2024-03-22T12:31:48;15.20;19.40
11142;DHT22;5625;50.122;19.864;2024-03-22T12:34:14;15.20;50.30
11142;DHT22;5625;50.122;19.864;2024-03-22T12:36:42;15.20;87.80
11142;DHT22;5625;50.122;19.864;2024-03-22T12:39:08;15.20;90.50
11142;DHT22;5625;50.122;19.864;2024-03-22T12:41:37;15.20;32.90
11142;DHT22;5625;50.122;19.864;2024-03-22T12:44:04;15.10;53.90
11142;DHT22;5625;50.122;19.864;2024-03-22T12:46:32;15.10;68.20
11142;DHT22;5625;50.122;19.864;2024-03-22T12:48:58;15.10;99.90
11142;DHT22;5625;50.122;19.864;2024-03-22T12:51:25;15.00;99.90
11142;DHT22;5625;50.122;19.864;2024-03-22T12:53:52;15.00;99.90
11142;DHT22;5625;50.122;19.864;2024-03-22T12:56:19;15.00;76.50
11142;DHT22;5625;50.122;19.864;2024-03-22T12:58:47;15.00;99.90
11142;DHT22;5625;50.122;19.864;2024-03-22T13:01:14;15.10;99.90
11142;DHT22;5625;50.122;19.864;2024-03-22T13:03:40;15.10;99.90
11142;DHT22;5625;50.122;19.864;2024-03-22T13:06:07;15.00;1.00
11142;DHT22;5625;50.122;19.864;2024-03-22T13:08:33;14.90;1.00
11142;DHT22;5625;50.122;19.864;2024-03-22T13:11:01;14.80;1.00
11142;DHT22;5625;50.122;19.864;2024-03-22T13:13:27;14.90;1.00
11142;DHT22;5625;50.122;19.864;2024-03-22T13:15:58;14.80;6.80
11142;DHT22;5625;50.122;19.864;2024-03-22T13:18:24;14.80;37.00
11142;DHT22;5625;50.122;19.864;2024-03-22T13:20:51;14.90;72.30
11142;DHT22;5625;50.122;19.864;2024-03-22T13:23:18;14.90;93.80
11142;DHT22;5625;50.122;19.864;2024-03-22T13:25:45;14.80;90.80
11142;DHT22;5625;50.122;19.864;2024-03-22T13:28:11;14.80;98.00
11142;DHT22;5625;50.122;19.864;2024-03-22T13:30:38;14.80;99.90
11142;DHT22;5625;50.122;19.864;2024-03-22T13:33:06;14.80;99.90
11142;DHT22;5625;50.122;19.864;2024-03-22T13:35:33;14.80;53.90
11142;DHT22;5625;50.122;19.864;2024-03-22T13:38:00;14.70;70.80
11142;DHT22;5625;50.122;19.864;2024-03-22T13:40:27;14.70;99.90
11142;DHT22;5625;50.122;19.864;2024-03-22T13:42:54;14.70;99.90
11142;DHT22;5625;50.122;19.864;2024-03-22T13:45:21;14.70;95.70
11142;DHT22;5625;50.122;19.864;2024-03-22T13:47:47;14.60;7.20
11142;DHT22;5625;50.122;19.864;2024-03-22T13:50:16;14.60;1.00
11142;DHT22;5625;50.122;19.864;2024-03-22T13:52:42;14.60;7.10
11142;DHT22;5625;50.122;19.864;2024-03-22T13:55:09;14.60;36.00
11142;DHT22;5625;50.122;19.864;2024-03-22T13:57:35;14.60;62.40
11142;DHT22;5625;50.122;19.864;2024-03-22T14:00:03;14.50;99.90
11142;DHT22;5625;50.122;19.864;2024-03-22T14:02:32;14.50;73.30
11142;DHT22;5625;50.122;19.864;2024-03-22T14:05:00;14.50;55.80
11142;DHT22;5625;50.122;19.864;2024-03-22T14:07:29;14.50;99.90
11142;DHT22;5625;50.122;19.864;2024-03-22T14:09:56;14.50;99.90
11142;DHT22;5625;50.122;19.864;2024-03-22T14:12:22;14.50;99.90
11142;DHT22;5625;50.122;19.864;2024-03-22T14:14:50;14.50;99.90
11142;DHT22;5625;50.122;19.864;2024-03-22T14:17:16;14.40;99.90
11142;DHT22;5625;50.122;19.864;2024-03-22T14:19:44;14.40;99.90
11142;DHT22;5625;50.122;19.864;2024-03-22T14:22:11;14.30;99.90
11142;DHT22;5625;50.122;19.864;2024-03-22T14:24:39;14.30;99.90
11142;DHT22;5625;50.122;19.864;2024-03-22T14:27:06;14.20;99.90
11142;DHT22;5625;50.122;19.864;2024-03-22T14:29:34;14.20;99.90
11142;DHT22;5625;50.122;19.864;2024-03-22T14:32:00;14.20;99.90
11142;DHT22;5625;50.122;19.864;2024-03-22T14:34:27;14.20;99.90
11142;DHT22;5625;50.122;19.864;2024-03-22T14:36:53;14.10;99.90
11142;DHT22;5625;50.122;19.864;2024-03-22T14:39:21;14.10;99.90
11142;DHT22;5625;50.122;19.864;2024-03-22T14:41:48;14.10;99.90
11142;DHT22;5625;50.122;19.864;2024-03-22T14:44:15;14.00;99.90
11142;DHT22;5625;50.122;19.864;2024-03-22T14:46:42;14.10;99.90
11142;DHT22;5625;50.122;19.864;2024-03-22T14:49:09;14.00;99.90
11142;DHT22;5625;50.122;19.864;2024-03-22T14:51:36;14.00;99.90
11142;DHT22;5625;50.122;19.864;2024-03-22T14:54:03;14.00;99.90
11142;DHT22;5625;50.122;19.864;2024-03-22T14:56:30;14.00;99.90
11142;DHT22;5625;50.122;19.864;2024-03-22T14:58:59;13.90;99.90
11142;DHT22;5625;50.122;19.864;2024-03-22T15:01:27;13.90;99.90
11142;DHT22;5625;50.122;19.864;2024-03-22T15:03:54;13.90;99.90
11142;DHT22;5625;50.122;19.864;2024-03-22T15:06:20;13.90;99.90
11142;DHT22;5625;50.122;19.864;2024-03-22T15:08:48;13.90;99.90
11142;DHT22;5625;50.122;19.864;2024-03-22T15:11:14;13.80;99.90
11142;DHT22;5625;50.122;19.864;2024-03-22T15:13:41;13.80;99.90
11142;DHT22;5625;50.122;19.864;2024-03-22T15:16:09;13.80;99.90
11142;DHT22;5625;50.122;19.864;2024-03-22T15:18:36;13.80;1.00
11142;DHT22;5625;50.122;19.864;2024-03-22T15:21:03;13.70;1.00
11142;DHT22;5625;50.122;19.864;2024-03-22T15:23:30;13.70;1.00
11142;DHT22;5625;50.122;19.864;2024-03-22T15:25:56;13.70;1.00
11142;DHT22;5625;50.122;19.864;2024-03-22T15:28:24;13.60;1.00
11142;DHT22;5625;50.122;19.864;2024-03-22T15:30:50;13.60;1.00
11142;DHT22;5625;50.122;19.864;2024-03-22T15:33:19;13.60;99.90
11142;DHT22;5625;50.122;19.864;2024-03-22T15:35:45;13.50;99.90
11142;DHT22;5625;50.122;19.864;2024-03-22T15:38:15;13.50;1.00
11142;DHT22;5625;50.122;19.864;2024-03-22T15:40:41;13.50;1.00
11142;DHT22;5625;50.122;19.864;2024-03-22T15:43:09;13.40;1.00
11142;DHT22;5625;50.122;19.864;2024-03-22T15:45:36;13.40;1.00